Time;durP1;ratioP1;P1;durP2;ratioP2;P2;SDS_P1;SDS_P2;PMS_P1;PMS_P2;Temp;Humidity;BMP_temperature;BMP_pressure;BME280_temperature;BME280_humidity;BME280_pressure;Samples;Min_cycle;Max_cycle;Signal;HPM_P1;HPM_P2
2023/01/07 00:00:50;;;;;;;1.48;0.77;;;10.00;99.90;;;;;;5005202;28;20069;-64
2023/01/07 00:03:16;;;;;;;0.88;0.88;;;10.00;99.90;;;;;;4997836;28;20117;-63
2023/01/07 00:05:42;;;;;;;1.20;0.70;;;10.00;99.90;;;;;;5012136;28;20018;-63
2023/01/07 00:08:09;;;;;;;1.33;0.63;;;10.00;99.90;;;;;;5010257;28;20052;-63
2023/01/07 00:10:35;;;;;;;0.90;0.85;;;10.00;99.90;;;;;;4999450;28;20111;-63
2023/01/07 00:13:00;;;;;;;1.48;1.10;;;10.00;99.90;;;;;;5000578;28;20167;-64
2023/01/07 00:15:26;;;;;;;3.17;1.35;;;10.10;99.90;;;;;;4999363;28;20023;-64
2023/01/07 00:17:52;;;;;;;0.80;0.60;;;10.00;99.90;;;;;;5005772;28;20038;-64
2023/01/07 00:20:17;;;;;;;0.70;0.70;;;10.00;99.90;;;;;;4998068;28;20041;-63
2023/01/07 00:22:43;;;;;;;1.40;0.85;;;10.00;99.90;;;;;;5001134;28;20511;-63
2023/01/07 00:25:09;;;;;;;0.60;0.55;;;10.10;99.90;;;;;;5004316;28;20025;-63
2023/01/07 00:27:34;;;;;;;0.88;0.80;;;10.10;99.90;;;;;;5014397;28;20497;-64
2023/01/07 00:30:00;;;;;;;4.20;1.15;;;10.10;99.90;;;;;;4999040;28;20049;-63
2023/01/07 00:32:50;;;;;;;1.55;0.80;;;10.10;99.90;;;;;;5008405;28;20026;-64
2023/01/07 00:35:22;;;;;;;1.38;0.85;;;10.10;99.90;;;;;;5000178;28;20042;-63
2023/01/07 00:37:49;;;;;;;1.50;0.80;;;10.00;99.90;;;;;;4992109;28;20068;-63
2023/01/07 00:40:15;;;;;;;0.60;0.60;;;10.10;99.90;;;;;;5004210;28;20049;-63
2023/01/07 00:42:53;;;;;;;0.55;0.55;;;10.00;99.90;;;;;;4995948;28;20034;-63
2023/01/07 00:45:19;;;;;;;0.65;0.65;;;10.10;99.90;;;;;;4999798;28;20044;-63
2023/01/07 00:47:44;;;;;;;0.68;0.60;;;10.10;99.90;;;;;;4996881;28;20100;-64
2023/01/07 00:50:10;;;;;;;2.38;0.82;;;10.10;99.90;;;;;;5005207;28;20172;-63
2023/01/07 00:52:35;;;;;;;0.60;0.50;;;10.10;99.90;;;;;;5006490;28;20029;-63
2023/01/07 00:55:01;;;;;;;0.70;0.60;;;10.10;99.90;;;;;;4996433;28;20195;-63
2023/01/07 00:57:27;;;;;;;3.35;0.88;;;10.10;99.90;;;;;;5005555;28;20036;-64
2023/01/07 00:59:52;;;;;;;0.95;0.70;;;10.10;99.90;;;;;;4995656;28;20111;-63
2023/01/07 01:02:18;;;;;;;0.60;0.60;;;10.10;99.90;;;;;;4996052;28;20026;-63
2023/01/07 01:04:44;;;;;;;0.77;0.77;;;10.10;99.90;;;;;;5000926;28;20105;-63
2023/01/07 01:07:09;;;;;;;0.65;0.57;;;10.00;99.90;;;;;;5005499;28;20067;-64
2023/01/07 01:09:35;;;;;;;0.80;0.60;;;10.00;99.90;;;;;;5000676;28;20395;-65
2023/01/07 01:12:00;;;;;;;1.35;0.82;;;10.10;99.90;;;;;;5006496;28;20108;-64
2023/01/07 01:14:26;;;;;;;1.08;0.40;;;10.10;99.90;;;;;;5000131;28;20033;-64
2023/01/07 01:16:51;;;;;;;1.50;0.70;;;10.00;99.90;;;;;;4999759;28;20041;-64
2023/01/07 01:19:17;;;;;;;0.77;0.60;;;10.00;99.90;;;;;;5000419;28;20053;-64
2023/01/07 01:21:43;;;;;;;1.73;1.00;;;10.00;99.90;;;;;;4997775;28;20030;-64
2023/01/07 01:24:08;;;;;;;0.73;0.70;;;10.00;99.90;;;;;;4995454;28;20022;-63
2023/01/07 01:26:35;;;;;;;1.05;0.47;;;10.00;99.90;;;;;;5003302;28;20042;-63
2023/01/07 01:29:01;;;;;;;1.60;0.60;;;10.00;99.90;;;;;;4993483;28;20458;-63
2023/01/07 01:31:26;;;;;;;1.02;0.70;;;10.00;99.90;;;;;;4998459;28;20484;-63
2023/01/07 01:33:53;;;;;;;0.90;0.82;;;10.00;99.90;;;;;;4995599;28;20113;-63
2023/01/07 01:36:19;;;;;;;3.17;0.70;;;10.00;99.90;;;;;;5004308;28;20022;-63
2023/01/07 01:38:45;;;;;;;1.27;0.73;;;10.00;99.90;;;;;;4984462;28;20573;-63
2023/01/07 01:41:15;;;;;;;0.73;0.70;;;9.90;99.90;;;;;;4999650;28;20105;-63
2023/01/07 01:43:41;;;;;;;0.70;0.70;;;10.00;99.90;;;;;;5003712;28;20117;-63
2023/01/07 01:46:28;;;;;;;0.98;0.80;;;10.00;99.90;;;;;;5002830;28;20112;-63
2023/01/07 01:49:01;;;;;;;0.88;0.70;;;9.90;99.90;;;;;;4997360;28;20606;-63
2023/01/07 01:51:33;;;;;;;2.67;0.65;;;9.90;99.90;;;;;;4999257;28;20381;-63
2023/01/07 01:54:02;;;;;;;1.13;0.70;;;9.80;99.90;;;;;;5002791;28;20116;-63
2023/01/07 01:56:32;;;;;;;4.78;0.82;;;9.80;99.90;;;;;;5005030;28;20034;-63
2023/01/07 01:59:04;;;;;;;0.77;0.70;;;9.80;99.90;;;;;;4996147;28;20053;-64
2023/01/07 02:01:32;;;;;;;2.08;0.88;;;9.80;99.90;;;;;;5000290;28;20030;-63
2023/01/07 02:03:59;;;;;;;1.98;0.77;;;9.80;99.90;;;;;;5003744;28;20026;-64
2023/01/07 02:06:29;;;;;;;0.68;0.68;;;9.80;99.90;;;;;;4994126;28;20512;-64
2023/01/07 02:08:55;;;;;;;1.27;0.90;;;9.80;99.90;;;;;;4993146;28;20034;-63
2023/01/07 02:11:26;;;;;;;0.77;0.60;;;9.80;99.90;;;;;;4997799;28;20026;-63
2023/01/07 02:14:08;;;;;;;2.17;1.00;;;9.70;99.90;;;;;;4998152;28;20022;-63
2023/01/07 02:17:03;;;;;;;1.00;0.70;;;9.70;99.90;;;;;;4999261;28;20061;-64
2023/01/07 02:19:58;;;;;;;1.15;0.73;;;9.60;99.90;;;;;;4993272;28;20053;-63
2023/01/07 02:22:29;;;;;;;1.02;0.80;;;9.60;99.90;;;;;;4998835;28;20527;-63
2023/01/07 02:25:07;;;;;;;1.20;0.80;;;9.60;99.90;;;;;;4998549;28;20496;-63
2023/01/07 02:27:39;;;;;;;0.80;0.80;;;9.50;99.90;;;;;;4995302;28;20691;-63
2023/01/07 02:30:32;;;;;;;1.20;0.77;;;9.50;99.90;;;;;;4995206;28;20026;-63
2023/01/07 02:33:07;;;;;;;1.15;0.70;;;9.50;99.90;;;;;;4997639;28;20029;-63
2023/01/07 02:35:51;;;;;;;1.75;1.20;;;9.50;99.90;;;;;;5000130;28;20026;-63
2023/01/07 02:38:47;;;;;;;1.40;0.90;;;9.40;99.90;;;;;;4985139;28;20050;-64
2023/01/07 02:41:16;;;;;;;0.80;0.80;;;9.40;99.90;;;;;;4996347;28;20069;-63
2023/01/07 02:44:02;;;;;;;1.48;0.98;;;9.40;99.90;;;;;;4997482;28;20403;-63
2023/01/07 02:46:49;;;;;;;1.27;0.80;;;9.40;99.90;;;;;;5002749;28;20108;-64
2023/01/07 02:49:16;;;;;;;0.85;0.70;;;9.40;99.90;;;;;;5001626;28;20025;-63
2023/01/07 02:51:44;;;;;;;3.97;0.90;;;9.30;99.90;;;;;;5007147;28;20029;-63
2023/01/07 02:54:16;;;;;;;1.17;0.90;;;9.40;99.90;;;;;;5004731;28;20108;-63
2023/01/07 02:57:28;;;;;;;1.27;1.13;;;9.30;99.90;;;;;;5004568;28;20125;-63
2023/01/07 03:00:44;;;;;;;1.00;0.90;;;9.30;99.90;;;;;;4982225;28;20455;-63
2023/01/07 03:03:28;;;;;;;1.35;1.13;;;9.20;99.90;;;;;;5001388;28;20030;-63
2023/01/07 03:06:14;;;;;;;1.98;1.10;;;9.20;99.90;;;;;;5005171;28;20044;-63
2023/01/07 03:09:02;;;;;;;3.00;1.00;;;9.20;99.90;;;;;;5006503;28;20056;-64
2023/01/07 03:11:38;;;;;;;0.80;0.80;;;9.20;99.90;;;;;;5021551;28;20025;-63
2023/01/07 03:14:19;;;;;;;3.75;1.45;;;9.20;99.90;;;;;;5001402;28;21729;-63
2023/01/07 03:16:51;;;;;;;1.00;0.88;;;9.20;99.90;;;;;;4998054;28;20131;-63
2023/01/07 03:19:21;;;;;;;2.75;1.00;;;9.20;99.90;;;;;;4992043;28;20030;-63
2023/01/07 03:21:47;;;;;;;1.30;0.90;;;9.20;99.90;;;;;;5004598;28;20473;-63
2023/01/07 03:24:15;;;;;;;1.30;1.00;;;9.20;99.90;;;;;;4995354;28;20034;-63
2023/01/07 03:26:51;;;;;;;3.90;1.42;;;9.20;99.90;;;;;;5002143;28;20068;-63
2023/01/07 03:29:18;;;;;;;2.25;1.05;;;9.30;99.90;;;;;;4997390;28;20018;-63
2023/01/07 03:32:03;;;;;;;3.80;1.20;;;9.30;99.90;;;;;;4999337;28;20049;-63
2023/01/07 03:34:31;;;;;;;1.02;0.85;;;9.30;99.90;;;;;;4999611;28;20030;-63
2023/01/07 03:37:02;;;;;;;1.20;1.10;;;9.30;99.90;;;;;;5001039;28;20112;-63
2023/01/07 03:39:30;;;;;;;2.15;1.33;;;9.30;99.90;;;;;;4981308;28;20038;-63
2023/01/07 03:44:40;;;;;;;;;;;9.30;99.90;;;;;;4998048;28;20550;-63
2023/01/07 03:47:07;;;;;;;2.63;1.30;;;9.30;99.90;;;;;;5005200;28;19914;-63
2023/01/07 03:49:34;;;;;;;1.35;0.93;;;9.30;99.90;;;;;;5003334;28;20030;-63
2023/01/07 03:52:00;;;;;;;2.35;1.13;;;9.30;99.90;;;;;;5002417;28;20030;-64
2023/01/07 03:54:26;;;;;;;1.80;1.10;;;9.30;99.90;;;;;;4999330;28;20057;-63
2023/01/07 03:56:51;;;;;;;1.70;1.25;;;9.30;99.90;;;;;;5001539;28;20128;-63
2023/01/07 03:59:17;;;;;;;5.28;1.33;;;9.30;99.90;;;;;;5003419;28;20180;-63
2023/01/07 04:01:43;;;;;;;1.55;1.27;;;9.30;99.90;;;;;;5001667;28;20076;-64
2023/01/07 04:04:08;;;;;;;4.97;0.82;;;9.30;99.90;;;;;;5000660;28;20033;-64
2023/01/07 04:06:34;;;;;;;1.65;1.05;;;9.30;99.90;;;;;;5001998;28;21892;-63
2023/01/07 04:08:59;;;;;;;2.13;1.20;;;9.30;99.90;;;;;;5002199;28;20460;-63
2023/01/07 04:11:25;;;;;;;5.60;1.40;;;9.30;99.90;;;;;;4995841;28;20084;-63
2023/01/07 04:13:50;;;;;;;1.98;1.40;;;9.20;99.90;;;;;;4992140;28;21510;-63
2023/01/07 04:16:16;;;;;;;1.55;1.17;;;9.20;99.90;;;;;;4988668;28;20030;-63
2023/01/07 04:18:42;;;;;;;2.30;1.45;;;9.20;99.90;;;;;;4991631;28;20030;-63
2023/01/07 04:21:07;;;;;;;1.35;1.05;;;9.10;99.90;;;;;;5003470;28;20034;-62
2023/01/07 04:23:33;;;;;;;1.38;1.10;;;9.10;99.90;;;;;;4995688;28;20029;-63
2023/01/07 04:25:58;;;;;;;1.88;1.30;;;9.10;99.90;;;;;;4994200;28;20040;-63
2023/01/07 04:28:24;;;;;;;3.13;1.20;;;9.10;99.90;;;;;;4994252;28;20026;-63
2023/01/07 04:30:49;;;;;;;1.75;1.27;;;9.00;99.90;;;;;;4994901;28;20073;-63
2023/01/07 04:33:15;;;;;;;1.40;1.23;;;9.00;99.90;;;;;;4994848;28;22175;-63
2023/01/07 04:35:41;;;;;;;3.78;1.25;;;9.00;99.90;;;;;;4989909;28;20026;-62
2023/01/07 04:38:06;;;;;;;1.50;1.10;;;9.10;99.90;;;;;;4994593;28;20434;-63
2023/01/07 04:40:32;;;;;;;6.05;1.80;;;9.10;99.90;;;;;;4972504;28;20057;-63
2023/01/07 04:42:58;;;;;;;1.98;1.35;;;9.10;99.90;;;;;;4990234;28;20041;-63
2023/01/07 04:45:24;;;;;;;2.22;1.50;;;9.10;99.90;;;;;;4993537;28;20023;-64
2023/01/07 04:47:49;;;;;;;2.15;1.17;;;9.10;99.90;;;;;;5007059;28;20113;-62
2023/01/07 04:50:15;;;;;;;2.30;1.30;;;9.10;99.90;;;;;;4992190;28;20450;-63
2023/01/07 04:52:41;;;;;;;1.60;1.50;;;9.20;99.90;;;;;;4993749;28;20048;-63
2023/01/07 04:55:07;;;;;;;2.38;1.70;;;9.10;99.90;;;;;;4993768;28;20510;-62
2023/01/07 04:57:33;;;;;;;2.50;1.50;;;9.20;99.90;;;;;;4988963;28;20053;-62
2023/01/07 04:59:59;;;;;;;1.83;1.38;;;9.10;99.90;;;;;;4987099;28;20582;-62
2023/01/07 05:02:24;;;;;;;2.72;1.42;;;9.10;99.90;;;;;;4988433;28;20030;-63
2023/01/07 05:04:50;;;;;;;1.17;1.00;;;9.20;99.90;;;;;;4988917;28;20105;-63
2023/01/07 05:07:15;;;;;;;2.00;1.52;;;9.20;99.90;;;;;;4988427;28;20382;-62
2023/01/07 05:09:41;;;;;;;2.00;1.30;;;9.20;99.90;;;;;;4987642;28;20038;-62
2023/01/07 05:12:07;;;;;;;1.55;1.08;;;9.20;99.90;;;;;;4986021;28;20069;-63
2023/01/07 05:14:32;;;;;;;3.58;1.70;;;9.20;99.90;;;;;;4987694;28;20072;-62
2023/01/07 05:16:58;;;;;;;2.72;1.27;;;9.20;99.90;;;;;;4987760;28;21756;-62
2023/01/07 05:19:23;;;;;;;2.05;1.75;;;9.20;99.90;;;;;;4997096;28;20044;-63
2023/01/07 05:21:49;;;;;;;1.98;1.48;;;9.10;99.90;;;;;;4986275;28;20029;-62
2023/01/07 05:24:15;;;;;;;1.85;1.15;;;9.10;99.90;;;;;;4988857;28;20022;-63
2023/01/07 05:26:40;;;;;;;5.25;1.40;;;9.10;99.90;;;;;;4988286;28;20026;-63
2023/01/07 05:29:07;;;;;;;2.10;1.35;;;9.10;99.90;;;;;;4987628;28;20646;-63
2023/01/07 05:31:33;;;;;;;1.20;1.00;;;9.20;99.90;;;;;;4987847;28;20170;-63
2023/01/07 05:33:59;;;;;;;10.73;1.77;;;9.20;99.90;;;;;;4987642;28;20041;-63
2023/01/07 05:36:24;;;;;;;2.38;1.20;;;9.20;99.90;;;;;;4986610;28;20095;-62
2023/01/07 05:38:50;;;;;;;2.38;1.40;;;9.20;99.90;;;;;;4966979;28;20069;-63
2023/01/07 05:41:15;;;;;;;1.27;1.15;;;9.20;99.90;;;;;;4985730;28;21585;-62
2023/01/07 05:43:41;;;;;;;1.48;1.10;;;9.20;99.90;;;;;;4985738;28;20038;-63
2023/01/07 05:46:06;;;;;;;2.90;1.20;;;9.20;99.90;;;;;;4989332;28;20033;-63
2023/01/07 05:48:32;;;;;;;1.60;1.13;;;9.20;99.90;;;;;;4986281;28;20488;-61
2023/01/07 05:50:57;;;;;;;1.60;1.20;;;9.20;99.90;;;;;;4984897;28;20037;-62
2023/01/07 05:53:23;;;;;;;2.88;0.95;;;9.20;99.90;;;;;;4990933;28;20046;-62
2023/01/07 05:55:57;;;;;;;3.40;1.58;;;9.30;99.90;;;;;;4992548;28;20041;-63
2023/01/07 05:58:23;;;;;;;1.92;1.00;;;9.30;99.90;;;;;;4994887;28;20041;-62
2023/01/07 06:00:49;;;;;;;0.70;0.70;;;9.30;99.90;;;;;;4994603;28;20029;-62
2023/01/07 06:03:14;;;;;;;2.95;1.05;;;9.30;99.90;;;;;;4992945;28;21675;-62
2023/01/07 06:05:40;;;;;;;2.05;0.93;;;9.30;99.90;;;;;;4992794;28;20041;-62
2023/01/07 06:08:05;;;;;;;1.90;1.10;;;9.30;99.90;;;;;;4993257;28;20080;-63
2023/01/07 06:10:31;;;;;;;6.05;1.38;;;9.30;99.90;;;;;;4991133;28;20029;-62
2023/01/07 06:12:57;;;;;;;1.92;1.08;;;9.30;99.90;;;;;;4990800;28;20603;-62
2023/01/07 06:15:22;;;;;;;1.52;0.90;;;9.30;99.90;;;;;;4983930;28;20084;-62
2023/01/07 06:17:48;;;;;;;1.88;0.88;;;9.40;99.90;;;;;;4988839;28;20042;-62
2023/01/07 06:20:14;;;;;;;2.45;1.20;;;9.30;99.90;;;;;;4984035;28;20042;-62
2023/01/07 06:22:41;;;;;;;3.63;0.98;;;9.40;99.90;;;;;;4990862;28;20034;-62
2023/01/07 06:25:08;;;;;;;1.63;0.90;;;9.30;99.90;;;;;;4992766;28;20026;-62
2023/01/07 06:27:33;;;;;;;1.08;0.73;;;9.30;99.90;;;;;;4986554;28;20025;-62
2023/01/07 06:29:59;;;;;;;0.80;0.70;;;9.40;99.90;;;;;;4983306;28;20030;-62
2023/01/07 06:32:25;;;;;;;5.90;0.80;;;9.30;99.90;;;;;;4987072;28;20478;-62
2023/01/07 06:34:50;;;;;;;3.70;1.20;;;9.30;99.90;;;;;;4985593;28;20060;-62
2023/01/07 06:37:16;;;;;;;1.50;0.80;;;9.30;99.90;;;;;;4985586;28;20038;-63
2023/01/07 06:39:42;;;;;;;1.02;0.70;;;9.30;99.90;;;;;;4963664;28;20046;-62
2023/01/07 06:42:08;;;;;;;1.40;1.13;;;9.30;99.90;;;;;;4985135;28;20040;-63
2023/01/07 06:44:34;;;;;;;3.17;0.85;;;9.30;99.90;;;;;;4985100;28;20076;-62
2023/01/07 06:46:59;;;;;;;0.77;0.70;;;9.30;99.90;;;;;;4985791;28;20361;-63
2023/01/07 06:49:25;;;;;;;0.95;0.60;;;9.30;99.90;;;;;;4988940;28;22008;-63
2023/01/07 06:51:50;;;;;;;1.83;0.77;;;9.30;99.90;;;;;;4984728;28;20042;-62
2023/01/07 06:54:16;;;;;;;3.00;0.70;;;9.30;99.90;;;;;;4985129;28;20034;-62
2023/01/07 06:56:41;;;;;;;2.47;0.60;;;9.30;99.90;;;;;;4983281;28;22004;-62
2023/01/07 06:59:07;;;;;;;3.10;0.93;;;9.30;99.90;;;;;;4987196;28;20045;-63
2023/01/07 07:01:32;;;;;;;0.60;0.60;;;9.30;99.90;;;;;;4986667;28;20033;-62
2023/01/07 07:03:58;;;;;;;0.73;0.70;;;9.30;99.90;;;;;;4982969;28;20992;-63
2023/01/07 07:06:24;;;;;;;2.00;0.77;;;9.30;99.90;;;;;;4984554;28;20068;-62
2023/01/07 07:08:49;;;;;;;2.35;0.95;;;9.30;99.90;;;;;;4986234;28;20068;-62
2023/01/07 07:11:15;;;;;;;1.27;0.80;;;9.30;99.90;;;;;;4987925;28;20033;-62
2023/01/07 07:13:40;;;;;;;2.72;0.57;;;9.40;99.90;;;;;;4991849;28;20088;-62
2023/01/07 07:16:06;;;;;;;3.30;0.85;;;9.30;99.90;;;;;;4988555;28;20120;-62
2023/01/07 07:18:32;;;;;;;1.27;0.93;;;9.30;99.90;;;;;;4991942;28;20045;-62
2023/01/07 07:20:57;;;;;;;2.92;0.60;;;9.30;99.90;;;;;;4987678;28;20044;-62
2023/01/07 07:23:23;;;;;;;1.98;0.80;;;9.30;99.90;;;;;;4989483;28;20071;-62
2023/01/07 07:25:49;;;;;;;3.55;1.90;;;9.30;99.90;;;;;;4988670;28;20026;-62
2023/01/07 07:28:15;;;;;;;1.10;0.77;;;9.30;99.90;;;;;;4988555;28;20030;-62
2023/01/07 07:30:41;;;;;;;1.58;0.93;;;9.30;99.90;;;;;;5003936;28;20033;-61
2023/01/07 07:33:07;;;;;;;1.98;0.77;;;9.30;99.90;;;;;;4988523;28;20036;-62
2023/01/07 07:35:33;;;;;;;1.08;0.98;;;9.30;99.90;;;;;;5004282;28;21835;-62
2023/01/07 07:37:58;;;;;;;0.75;0.75;;;9.30;99.90;;;;;;4987090;28;20034;-62
2023/01/07 07:40:24;;;;;;;2.10;1.00;;;9.30;99.90;;;;;;4968048;28;20057;-62
2023/01/07 07:42:50;;;;;;;1.42;0.77;;;9.20;99.90;;;;;;4989755;28;20061;-62
2023/01/07 07:45:15;;;;;;;0.73;0.70;;;9.30;99.90;;;;;;4990996;28;20064;-62
2023/01/07 07:47:42;;;;;;;2.25;0.82;;;9.20;99.90;;;;;;4989834;28;20391;-62
2023/01/07 07:50:07;;;;;;;0.95;0.75;;;9.20;99.90;;;;;;4991756;28;20025;-62
2023/01/07 07:52:33;;;;;;;3.50;0.80;;;9.30;99.90;;;;;;4985781;28;20044;-62
2023/01/07 07:54:59;;;;;;;1.00;0.52;;;9.30;99.90;;;;;;4995094;28;20103;-62
2023/01/07 07:57:25;;;;;;;0.75;0.70;;;9.30;99.90;;;;;;4994715;28;20037;-62
2023/01/07 07:59:50;;;;;;;0.65;0.55;;;9.20;99.90;;;;;;4994431;28;20038;-62
2023/01/07 08:02:18;;;;;;;0.98;0.70;;;9.20;99.90;;;;;;4995307;28;20033;-63
2023/01/07 08:04:44;;;;;;;1.10;0.88;;;9.20;99.90;;;;;;4995208;28;20279;-62
2023/01/07 08:07:11;;;;;;;2.10;0.95;;;9.20;99.90;;;;;;4992535;28;20035;-62
2023/01/07 08:09:37;;;;;;;0.88;0.60;;;9.20;99.90;;;;;;4993653;28;20112;-62
2023/01/07 08:12:03;;;;;;;1.15;0.73;;;9.20;99.90;;;;;;4992993;28;20034;-62
2023/01/07 08:14:28;;;;;;;2.35;0.90;;;9.30;99.90;;;;;;4994863;28;20037;-62
2023/01/07 08:16:54;;;;;;;1.75;0.98;;;9.30;99.90;;;;;;4994467;28;20034;-63
2023/01/07 08:19:19;;;;;;;4.45;1.00;;;9.30;99.90;;;;;;4996446;28;20088;-62
2023/01/07 08:21:45;;;;;;;1.00;0.70;;;9.30;99.90;;;;;;4994355;28;20030;-63
2023/01/07 08:24:10;;;;;;;0.80;0.70;;;9.30;99.90;;;;;;4998226;28;21757;-63
2023/01/07 08:26:36;;;;;;;1.17;0.88;;;9.40;99.90;;;;;;5005929;28;20469;-63
2023/01/07 08:29:02;;;;;;;1.40;0.90;;;9.40;99.90;;;;;;4995693;28;20018;-62
2023/01/07 08:31:28;;;;;;;2.80;1.05;;;9.40;99.90;;;;;;4996034;28;20029;-63
2023/01/07 08:33:53;;;;;;;1.48;0.75;;;9.50;99.90;;;;;;4994537;28;20849;-62
2023/01/07 08:36:19;;;;;;;1.05;0.85;;;9.40;99.90;;;;;;4995525;28;20365;-62
2023/01/07 08:38:44;;;;;;;1.42;1.00;;;9.50;99.90;;;;;;4994936;28;20022;-62
2023/01/07 08:41:10;;;;;;;1.35;0.93;;;9.50;99.90;;;;;;4980581;28;20057;-62
2023/01/07 08:43:35;;;;;;;4.75;1.20;;;9.50;99.90;;;;;;5011343;28;20072;-62
2023/01/07 08:46:01;;;;;;;1.50;1.00;;;9.60;99.90;;;;;;4998659;28;20514;-63
2023/01/07 08:48:27;;;;;;;1.55;0.90;;;9.60;99.90;;;;;;4997249;28;20505;-62
2023/01/07 08:50:53;;;;;;;2.15;1.52;;;9.60;99.90;;;;;;4995578;28;20045;-62
2023/01/07 08:53:20;;;;;;;1.80;1.33;;;9.70;99.90;;;;;;5000846;28;20054;-62
2023/01/07 08:55:46;;;;;;;5.78;1.60;;;9.80;99.90;;;;;;5013124;28;20120;-63
2023/01/07 08:58:12;;;;;;;2.67;1.70;;;9.70;99.90;;;;;;5014501;28;20129;-62
2023/01/07 09:00:38;;;;;;;2.25;1.58;;;9.70;99.90;;;;;;5009231;28;20030;-63
2023/01/07 09:03:04;;;;;;;4.07;2.22;;;9.70;99.90;;;;;;4993233;28;20029;-62
2023/01/07 09:05:29;;;;;;;5.63;2.13;;;9.80;99.90;;;;;;5012749;28;20104;-62
2023/01/07 09:07:55;;;;;;;2.15;1.80;;;9.80;99.90;;;;;;5013515;28;20033;-62
2023/01/07 09:10:22;;;;;;;2.40;1.83;;;9.80;99.90;;;;;;5014266;28;20113;-62
2023/01/07 09:12:48;;;;;;;3.25;1.90;;;9.80;99.90;;;;;;5013983;28;20691;-62
2023/01/07 09:15:13;;;;;;;2.90;2.15;;;9.90;99.90;;;;;;5012758;28;20042;-62
2023/01/07 09:17:39;;;;;;;2.53;1.95;;;9.90;99.90;;;;;;5015646;28;20034;-62
2023/01/07 09:20:06;;;;;;;3.05;1.98;;;10.00;99.90;;;;;;5007111;28;20045;-62
2023/01/07 09:22:33;;;;;;;3.08;2.00;;;10.10;99.90;;;;;;5009204;28;20048;-62
2023/01/07 09:24:59;;;;;;;3.08;2.30;;;10.10;99.90;;;;;;5006726;28;20030;-62
2023/01/07 09:27:25;;;;;;;3.28;2.63;;;10.20;99.90;;;;;;5006102;28;20068;-61
2023/01/07 09:29:52;;;;;;;3.50;2.20;;;10.20;99.90;;;;;;5008346;28;20029;-63
2023/01/07 09:32:18;;;;;;;4.10;2.17;;;10.20;99.90;;;;;;5004293;28;20029;-62
2023/01/07 09:34:44;;;;;;;3.65;2.13;;;10.30;99.90;;;;;;5007158;28;20038;-62
2023/01/07 09:37:09;;;;;;;3.15;2.60;;;10.30;99.90;;;;;;5006769;28;20037;-63
2023/01/07 09:39:35;;;;;;;3.88;1.55;;;10.50;99.90;;;;;;4988511;28;20479;-63
2023/01/07 09:42:34;;;;;;;2.88;2.03;;;10.50;99.90;;;;;;5006342;28;20034;-62
2023/01/07 09:45:25;;;;;;;3.17;2.17;;;10.70;99.90;;;;;;4989250;28;20173;-62
2023/01/07 09:47:57;;;;;;;3.63;2.22;;;10.70;99.90;;;;;;4998832;28;20078;-62
2023/01/07 09:50:23;;;;;;;6.03;2.53;;;10.80;99.90;;;;;;5001446;28;20562;-64
2023/01/07 09:52:56;;;;;;;3.42;2.05;;;10.90;99.90;;;;;;5011145;28;20037;-62
2023/01/07 09:55:30;;;;;;;3.03;2.13;;;10.90;99.90;;;;;;5012954;28;20042;-62
2023/01/07 09:57:56;;;;;;;2.35;1.95;;;11.10;99.90;;;;;;5012157;28;20029;-62
2023/01/07 10:00:23;;;;;;;3.53;2.50;;;11.20;99.90;;;;;;5012353;28;20049;-63
2023/01/07 10:03:01;;;;;;;3.15;2.53;;;11.30;99.90;;;;;;5014779;28;20072;-62
2023/01/07 10:05:41;;;;;;;3.70;2.50;;;11.30;99.90;;;;;;5009111;28;20029;-63
2023/01/07 10:08:26;;;;;;;4.03;2.50;;;11.40;99.90;;;;;;5016343;28;20033;-63
2023/01/07 10:11:22;;;;;;;3.55;1.90;;;11.50;99.90;;;;;;5012119;28;20029;-63
2023/01/07 10:14:01;;;;;;;3.63;2.58;;;11.60;99.90;;;;;;5012427;28;20033;-62
2023/01/07 10:16:51;;;;;;;2.47;1.75;;;11.60;99.90;;;;;;5013492;28;20037;-62
2023/01/07 10:19:22;;;;;;;2.42;1.77;;;11.60;99.90;;;;;;5012411;28;20095;-63
2023/01/07 10:21:54;;;;;;;6.30;2.15;;;11.60;99.90;;;;;;5010777;28;20109;-62
2023/01/07 10:24:36;;;;;;;2.88;2.13;;;11.60;99.90;;;;;;5011096;28;20029;-63
2023/01/07 10:27:08;;;;;;;3.38;1.67;;;11.70;99.90;;;;;;5009920;28;20030;-62
2023/01/07 10:29:40;;;;;;;2.33;1.58;;;11.60;99.90;;;;;;5003762;28;20026;-62
2023/01/07 10:32:14;;;;;;;1.83;1.52;;;11.50;99.90;;;;;;5005681;28;20068;-62
2023/01/07 10:34:46;;;;;;;3.33;1.67;;;11.50;99.90;;;;;;5012966;28;20561;-62
2023/01/07 10:37:38;;;;;;;1.23;1.10;;;11.40;99.90;;;;;;5003046;28;20411;-62
2023/01/07 10:40:18;;;;;;;1.73;1.15;;;11.50;99.90;;;;;;4989531;28;20045;-63
2023/01/07 10:42:50;;;;;;;1.75;1.20;;;11.60;99.90;;;;;;5004788;28;20029;-62
2023/01/07 10:45:37;;;;;;;3.08;1.38;;;11.50;99.90;;;;;;5005977;28;20037;-63
2023/01/07 10:48:11;;;;;;;2.85;2.30;;;11.60;99.90;;;;;;5009340;28;20495;-62
2023/01/07 10:51:06;;;;;;;2.60;1.27;;;11.40;99.90;;;;;;5007981;28;20063;-62
2023/01/07 10:54:13;;;;;;;2.25;1.45;;;11.40;99.90;;;;;;5005263;28;20072;-62
2023/01/07 10:56:43;;;;;;;2.03;1.35;;;11.50;99.90;;;;;;5006756;28;20116;-61
2023/01/07 10:59:20;;;;;;;1.80;0.95;;;11.50;99.90;;;;;;5010322;28;20061;-62
2023/01/07 11:01:55;;;;;;;1.35;0.85;;;11.60;99.90;;;;;;5004604;28;20026;-62
2023/01/07 11:04:21;;;;;;;1.92;1.27;;;11.70;99.90;;;;;;5010141;28;22071;-62
2023/01/07 11:06:57;;;;;;;4.32;1.45;;;11.60;99.90;;;;;;5008478;28;20040;-63
2023/01/07 11:09:28;;;;;;;2.28;1.45;;;11.60;99.90;;;;;;5007218;28;20105;-64
2023/01/07 11:11:56;;;;;;;2.10;0.93;;;11.50;99.90;;;;;;5007884;28;21948;-62
2023/01/07 11:14:26;;;;;;;1.98;1.08;;;11.40;99.90;;;;;;5007748;28;20037;-61
2023/01/07 11:17:02;;;;;;;7.45;3.38;;;11.30;99.90;;;;;;5005209;28;20076;-62
2023/01/07 11:19:47;;;;;;;5.50;2.42;;;11.10;99.90;;;;;;5007179;28;20056;-62
2023/01/07 11:22:25;;;;;;;3.03;1.38;;;11.10;99.90;;;;;;5006592;28;20037;-62
2023/01/07 11:24:55;;;;;;;2.83;2.05;;;11.00;99.90;;;;;;5008409;28;20432;-62
2023/01/07 11:27:24;;;;;;;3.25;2.33;;;10.90;99.90;;;;;;5007084;28;20036;-62
2023/01/07 11:30:26;;;;;;;2.65;1.50;;;10.90;99.90;;;;;;5007765;28;20036;-62
2023/01/07 11:33:01;;;;;;;1.27;1.00;;;10.80;99.90;;;;;;5004442;28;20029;-62
2023/01/07 11:35:27;;;;;;;1.20;1.10;;;10.80;99.90;;;;;;4989929;28;21338;-62
2023/01/07 11:37:55;;;;;;;1.52;1.20;;;10.80;99.90;;;;;;5005720;28;20029;-62
2023/01/07 11:40:24;;;;;;;0.82;0.80;;;10.70;99.90;;;;;;4983957;28;20053;-62
2023/01/07 11:43:01;;;;;;;11.07;3.50;;;10.70;99.90;;;;;;5006819;28;20061;-62
2023/01/07 11:45:30;;;;;;;2.50;1.70;;;10.60;99.90;;;;;;5006990;28;20029;-62
2023/01/07 11:48:01;;;;;;;1.83;1.15;;;10.60;99.90;;;;;;5006579;28;20645;-62
2023/01/07 11:50:52;;;;;;;6.72;1.17;;;10.50;99.90;;;;;;5008223;28;20025;-62
2023/01/07 11:53:18;;;;;;;2.28;1.65;;;10.50;99.90;;;;;;5009692;28;20033;-63
2023/01/07 11:56:02;;;;;;;3.25;1.73;;;10.60;99.90;;;;;;5016416;28;20033;-62
2023/01/07 11:58:32;;;;;;;1.88;0.90;;;10.60;99.90;;;;;;5017542;28;20030;-62
2023/01/07 12:01:06;;;;;;;1.17;0.90;;;10.80;99.90;;;;;;5015224;28;20624;-63
2023/01/07 12:03:32;;;;;;;0.95;0.70;;;10.90;99.90;;;;;;5015780;28;20033;-63
2023/01/07 12:06:07;;;;;;;1.67;0.98;;;11.00;99.90;;;;;;5018892;28;20055;-62
2023/01/07 12:08:33;;;;;;;1.25;0.80;;;11.20;99.90;;;;;;5019936;28;20108;-62
2023/01/07 12:11:05;;;;;;;1.00;0.60;;;11.20;99.90;;;;;;5027055;28;20025;-63
2023/01/07 12:13:33;;;;;;;0.70;0.70;;;11.20;99.90;;;;;;5031869;28;20029;-62
2023/01/07 12:16:02;;;;;;;0.85;0.85;;;11.20;99.90;;;;;;5024710;28;20034;-62
2023/01/07 12:18:46;;;;;;;0.98;0.98;;;11.10;99.90;;;;;;5028947;28;20040;-62
2023/01/07 12:21:29;;;;;;;1.30;0.80;;;11.10;99.90;;;;;;5026799;28;20040;-63
2023/01/07 12:24:45;;;;;;;1.48;0.80;;;11.10;99.90;;;;;;5025174;28;20056;-62
2023/01/07 12:27:31;;;;;;;0.70;0.68;;;11.10;99.90;;;;;;4980443;28;20088;-63
2023/01/07 12:30:23;;;;;;;2.08;0.90;;;11.10;99.90;;;;;;5027638;28;20102;-63
2023/01/07 12:32:51;;;;;;;1.30;1.00;;;11.10;99.90;;;;;;4998603;28;20033;-63
2023/01/07 12:35:23;;;;;;;1.38;1.10;;;11.10;99.90;;;;;;5019813;28;20108;-62
2023/01/07 12:37:56;;;;;;;1.27;0.85;;;11.10;99.90;;;;;;5023891;28;20391;-63
2023/01/07 12:40:31;;;;;;;1.20;0.85;;;11.10;99.90;;;;;;5005841;28;20075;-61
2023/01/07 12:43:03;;;;;;;0.88;0.77;;;11.10;99.90;;;;;;5025159;28;20068;-62
2023/01/07 12:45:41;;;;;;;1.10;0.73;;;11.10;99.90;;;;;;5033497;28;20030;-63
2023/01/07 12:48:20;;;;;;;1.58;0.93;;;11.00;99.90;;;;;;5036692;28;20025;-62
2023/01/07 12:50:50;;;;;;;1.23;1.05;;;11.10;99.90;;;;;;5034169;28;20022;-62
2023/01/07 12:53:40;;;;;;;0.73;0.70;;;11.10;99.90;;;;;;5031731;28;20079;-63
2023/01/07 12:56:11;;;;;;;1.92;0.80;;;11.10;99.90;;;;;;5029082;28;20642;-63
2023/01/07 12:58:50;;;;;;;1.38;0.90;;;11.10;99.90;;;;;;5036600;28;20041;-62
2023/01/07 13:01:45;;;;;;;1.85;1.23;;;11.20;99.90;;;;;;5020538;28;20025;-63
2023/01/07 13:04:33;;;;;;;1.30;1.15;;;11.20;99.90;;;;;;5005197;28;20067;-63
2023/01/07 13:07:31;;;;;;;1.85;1.05;;;11.10;99.90;;;;;;5003847;28;20104;-63
2023/01/07 13:10:18;;;;;;;1.67;1.30;;;11.10;99.90;;;;;;5019846;28;20479;-62
2023/01/07 13:12:46;;;;;;;1.08;0.93;;;11.00;99.90;;;;;;5021432;28;20038;-62